Bertrand, Nebraska
Current Conditions -  °F | °C
As of 11:15 PM on Sunday 21 Dec 2014 (Local Time) from KHDE Reporting Station
Haze Haze  
Wind Chill: 32°   Ceiling: 800
Heat Index: 39°   Visibility: 5mi
Dew Point: 37°   Wind: 12mph
Humidity: 93%   Direction: 170°S
Pressure: 29.51"   Gusts: NA
Location:  40.53°N, 99.63°W
Report Text: KHDE 220515Z AUTO 17010KT 5SM BR BKN008 BKN013 OVC090 04/03 A2951 RMK AO2 T00400030
Loading
Personal Weather Stations






























Interactive Weather Map New forecast layout! Learn more

10-Day Weather Forecast

Advertisements
Track Severe Weather on mobile